Time;durP1;ratioP1;P1;durP2;ratioP2;P2;SDS_P1;SDS_P2;PMS_P1;PMS_P2;Temp;Humidity;BMP_temperature;BMP_pressure;BME280_temperature;BME280_humidity;BME280_pressure;Samples;Min_cycle;Max_cycle;Signal;HPM_P1;HPM_P2
2022/12/12 00:00:43;;;;;;;1999.90;999.90;;;;;;;-0.07;100.00;96927.47;5050467;28;20056;-76
2022/12/12 00:03:08;;;;;;;1999.90;999.90;;;;;;;-0.03;100.00;96925.06;5050368;28;20033;-76
2022/12/12 00:05:34;;;;;;;1999.90;999.90;;;;;;;-0.03;100.00;96928.56;5050306;28;20551;-76
2022/12/12 00:07:59;;;;;;;1999.90;999.90;;;;;;;-0.03;100.00;96920.50;5050464;28;20049;-76
2022/12/12 00:10:24;;;;;;;1999.90;999.90;;;;;;;-0.01;100.00;96928.34;5050589;28;20045;-76
2022/12/12 00:12:50;;;;;;;1999.90;999.90;;;;;;;-0.04;100.00;96932.34;5050236;28;20481;-77
2022/12/12 00:15:15;;;;;;;1999.90;999.90;;;;;;;-0.02;100.00;96938.28;5050151;28;20025;-76
2022/12/12 00:17:41;;;;;;;1999.90;999.90;;;;;;;-0.05;100.00;96938.78;5050116;28;20033;-76
2022/12/12 00:20:06;;;;;;;1999.90;999.90;;;;;;;-0.07;100.00;96932.84;5054190;28;20033;-76
2022/12/12 00:22:32;;;;;;;1999.90;999.90;;;;;;;-0.17;100.00;96945.34;5054434;28;20059;-74
2022/12/12 00:24:57;;;;;;;1999.90;999.90;;;;;;;-0.16;100.00;96953.16;5054374;28;20032;-76
2022/12/12 00:27:22;;;;;;;1999.90;999.90;;;;;;;-0.31;100.00;96946.78;5053905;28;20032;-74
2022/12/12 00:29:54;;;;;;;1999.90;999.90;;;;;;;-0.32;100.00;96953.25;5054252;28;20128;-76
2022/12/12 00:32:20;;;;;;;1999.90;999.90;;;;;;;-0.30;100.00;96957.31;5054172;28;20120;-75
2022/12/12 00:34:46;;;;;;;1999.90;999.90;;;;;;;-0.41;100.00;96958.25;5054056;28;20119;-77
2022/12/12 00:37:11;;;;;;;1999.90;999.90;;;;;;;-0.67;100.00;96951.75;5054362;28;20116;-76
2022/12/12 00:39:36;;;;;;;1999.90;999.90;;;;;;;-0.65;100.00;96964.91;5054562;28;20363;-75
2022/12/12 00:42:02;;;;;;;1999.90;999.90;;;;;;;-0.67;100.00;96972.41;5054189;28;20029;-75
2022/12/12 00:44:27;;;;;;;1999.90;999.90;;;;;;;-0.81;100.00;96960.41;5054273;28;20029;-76
2022/12/12 00:46:52;;;;;;;1999.90;999.90;;;;;;;-0.85;100.00;96976.22;5054552;28;20028;-76
2022/12/12 00:49:18;;;;;;;1999.90;999.90;;;;;;;-0.75;100.00;96970.16;5054935;28;20032;-76
2022/12/12 00:51:43;;;;;;;1999.90;999.90;;;;;;;-0.81;100.00;96974.63;5055070;28;20019;-77
2022/12/12 00:54:10;;;;;;;1999.90;999.90;;;;;;;-0.85;100.00;96978.06;5053934;28;20051;-75
2022/12/12 00:56:35;;;;;;;1999.90;999.90;;;;;;;-0.80;100.00;96983.50;5053326;28;20170;-76
2022/12/12 00:59:03;;;;;;;1999.90;999.90;;;;;;;-0.78;100.00;96978.69;5053444;28;20116;-76
2022/12/12 01:01:30;;;;;;;1999.90;999.90;;;;;;;-0.74;100.00;96980.66;5053770;28;20545;-76
2022/12/12 01:03:56;;;;;;;1999.90;999.90;;;;;;;-0.60;100.00;96997.22;5053911;28;20036;-76
2022/12/12 01:06:22;;;;;;;1999.90;999.90;;;;;;;-0.71;100.00;97001.63;5053380;28;20056;-75
2022/12/12 01:08:47;;;;;;;1999.90;999.90;;;;;;;-0.57;100.00;97004.78;5053606;28;20033;-75
2022/12/12 01:11:14;;;;;;;1999.90;999.90;;;;;;;-0.58;100.00;97011.19;5053342;28;20029;-75
2022/12/12 01:13:40;;;;;;;1999.90;999.90;;;;;;;-0.61;100.00;96998.25;5053367;28;20187;-75
2022/12/12 01:16:06;;;;;;;1999.90;999.90;;;;;;;-0.58;100.00;97008.50;5053210;28;20013;-75
2022/12/12 01:18:32;;;;;;;1999.90;999.90;;;;;;;-0.73;100.00;97005.63;5053657;28;20040;-75
2022/12/12 01:20:57;;;;;;;1999.90;999.90;;;;;;;-0.66;100.00;96999.00;5051816;28;20143;-75
2022/12/12 01:23:23;;;;;;;1999.90;999.90;;;;;;;-0.63;100.00;97016.50;5052698;28;20110;-76
2022/12/12 01:25:48;;;;;;;1999.90;999.90;;;;;;;-0.70;100.00;97005.94;5052960;28;20092;-75
2022/12/12 01:28:13;;;;;;;1999.90;999.90;;;;;;;-0.80;100.00;97004.97;5053139;28;20055;-76
2022/12/12 01:30:39;;;;;;;1999.90;999.90;;;;;;;-0.81;100.00;97000.66;5052605;28;20040;-77
2022/12/12 01:33:04;;;;;;;1999.90;999.90;;;;;;;-0.89;100.00;97003.78;5055471;28;20040;-76
2022/12/12 01:35:34;;;;;;;1999.90;999.90;;;;;;;-0.81;100.00;97006.84;5056072;28;20480;-74
2022/12/12 01:37:59;;;;;;;1999.90;999.90;;;;;;;-0.84;100.00;97014.56;5054872;28;20040;-76
2022/12/12 01:40:27;;;;;;;1999.90;999.90;;;;;;;-0.93;100.00;97014.19;5052619;28;20037;-75
2022/12/12 01:42:53;;;;;;;1999.90;999.90;;;;;;;-0.88;100.00;97019.66;5052179;28;20106;-76
2022/12/12 01:45:56;;;;;;;1999.90;999.90;;;;;;;-0.94;100.00;97019.81;5052399;28;20021;-76
2022/12/12 01:48:26;;;;;;;1999.90;999.90;;;;;;;-1.02;100.00;97017.53;5051329;28;20385;-75
2022/12/12 01:50:52;;;;;;;1999.90;999.90;;;;;;;-1.03;100.00;97015.91;5052111;28;20047;-75
2022/12/12 01:53:18;;;;;;;1999.90;999.90;;;;;;;-0.94;100.00;97025.19;5052599;28;20478;-76
2022/12/12 01:55:47;;;;;;;1999.90;999.90;;;;;;;-1.11;100.00;97009.91;5052510;28;20016;-75
2022/12/12 01:58:12;;;;;;;1999.90;999.90;;;;;;;-1.01;100.00;97029.88;5053972;28;20119;-76
2022/12/12 02:00:38;;;;;;;1999.90;999.90;;;;;;;-1.10;100.00;97010.72;5072134;28;20479;-76
2022/12/12 02:03:04;;;;;;;1999.90;999.90;;;;;;;-1.10;100.00;97021.44;5072378;28;20025;-75
2022/12/12 02:05:37;;;;;;;1999.90;999.90;;;;;;;-1.09;100.00;97013.13;5070950;28;20047;-76
2022/12/12 02:08:04;;;;;;;1999.90;999.90;;;;;;;-1.09;100.00;97026.56;5052264;28;20446;-75
2022/12/12 02:10:30;;;;;;;1999.90;999.90;;;;;;;-1.03;100.00;97021.28;5052360;28;20029;-76
2022/12/12 02:13:02;;;;;;;1999.90;999.90;;;;;;;-0.99;100.00;97023.22;5052422;28;20671;-77
2022/12/12 02:15:38;;;;;;;1999.90;999.90;;;;;;;-0.94;100.00;97030.53;5052321;28;20029;-76
2022/12/12 02:18:18;;;;;;;1999.90;999.90;;;;;;;-0.94;100.00;97038.59;5052610;28;20504;-76
2022/12/12 02:20:46;;;;;;;1999.90;999.90;;;;;;;-0.90;100.00;97042.38;5052309;28;20120;-76
2022/12/12 02:23:23;;;;;;;1999.90;999.90;;;;;;;-0.84;100.00;97044.09;5050857;28;20783;-75
2022/12/12 02:26:06;;;;;;;1999.90;999.90;;;;;;;-0.83;100.00;97043.03;5052352;28;20078;-76
2022/12/12 02:28:44;;;;;;;1999.90;999.90;;;;;;;-0.63;100.00;97051.41;5051916;28;20025;-76
2022/12/12 02:31:12;;;;;;;1999.90;999.90;;;;;;;-0.82;100.00;97050.03;5052126;28;20056;-77
2022/12/12 02:33:55;;;;;;;1999.90;999.90;;;;;;;-0.86;100.00;97048.91;5052013;28;20025;-75
2022/12/12 02:36:35;;;;;;;1999.90;999.90;;;;;;;-0.84;100.00;97046.78;5051736;28;20048;-76
2022/12/12 02:39:24;;;;;;;1999.90;999.90;;;;;;;-0.72;100.00;97050.19;5050643;28;20041;-76
2022/12/12 02:41:54;;;;;;;1999.90;999.90;;;;;;;-0.88;100.00;97045.66;5050719;28;20485;-76
2022/12/12 02:44:35;;;;;;;1999.90;999.90;;;;;;;-0.99;100.00;97041.19;5051724;28;20021;-75
2022/12/12 02:47:09;;;;;;;1999.90;999.90;;;;;;;-1.06;100.00;97046.69;5051466;28;20389;-76
2022/12/12 02:49:44;;;;;;;1999.90;999.90;;;;;;;-1.08;100.00;97038.91;5051995;28;20058;-76
2022/12/12 02:52:10;;;;;;;1999.90;999.90;;;;;;;-0.95;100.00;97040.47;5051801;28;20074;-75
2022/12/12 02:54:36;;;;;;;1999.90;999.90;;;;;;;-0.88;100.00;97037.59;5051509;28;20028;-76
2022/12/12 02:57:04;;;;;;;1999.90;999.90;;;;;;;-0.84;100.00;97036.84;5051351;28;20021;-75
2022/12/12 02:59:39;;;;;;;1999.90;999.90;;;;;;;-0.95;100.00;97034.28;5051220;28;20375;-75
2022/12/12 03:02:31;;;;;;;1999.90;999.90;;;;;;;-0.97;100.00;97044.44;5050346;28;20039;-76
2022/12/12 03:08:39;;;;;;;1999.90;999.90;;;;;;;-0.90;100.00;97053.13;5051032;28;20039;-76
2022/12/12 03:11:13;;;;;;;1999.90;999.90;;;;;;;-0.79;100.00;97055.75;5034617;28;20045;-75
2022/12/12 03:14:04;;;;;;;1999.90;999.90;;;;;;;-0.78;100.00;97061.91;5050010;28;20037;-76
2022/12/12 03:16:37;;;;;;;1999.90;999.90;;;;;;;-0.86;100.00;97065.00;5051140;28;20424;-75
2022/12/12 03:19:27;;;;;;;1999.90;999.90;;;;;;;-0.85;100.00;97070.13;5051400;28;20033;-76
2022/12/12 03:22:04;;;;;;;1999.90;999.90;;;;;;;-0.80;100.00;97074.75;5050936;28;20406;-76
2022/12/12 03:25:28;;;;;;;1999.90;999.90;;;;;;;-0.79;100.00;97076.38;5050842;28;20561;-76
2022/12/12 03:28:16;;;;;;;1999.90;999.90;;;;;;;-0.79;100.00;97065.66;5008960;28;20046;-76
2022/12/12 03:30:45;;;;;;;1999.90;999.90;;;;;;;-0.88;100.00;97067.13;5008734;28;20442;-76
2022/12/12 03:33:34;;;;;;;1999.90;999.90;;;;;;;-0.92;100.00;97074.03;5041593;28;20379;-75
2022/12/12 03:36:16;;;;;;;1999.90;999.90;;;;;;;-0.96;100.00;97072.88;5051013;28;20021;-76
2022/12/12 03:38:46;;;;;;;1999.90;999.90;;;;;;;-0.78;100.00;97083.38;5050898;28;20025;-76
2022/12/12 03:41:18;;;;;;;1999.90;999.90;;;;;;;-0.75;100.00;97088.28;5050911;28;20043;-76
2022/12/12 03:43:56;;;;;;;1999.90;999.90;;;;;;;-0.80;100.00;97066.69;5051699;28;20420;-76
2022/12/12 03:46:36;;;;;;;1999.90;999.90;;;;;;;-0.92;100.00;97084.75;5056133;28;20590;-79
2022/12/12 03:49:12;;;;;;;1999.90;999.90;;;;;;;-0.88;100.00;97083.22;5052158;28;20850;-75
2022/12/12 03:51:49;;;;;;;1999.90;999.90;;;;;;;-0.75;100.00;97082.91;5050559;28;20025;-75
2022/12/12 03:54:40;;;;;;;1999.90;999.90;;;;;;;-0.60;100.00;97080.44;5050276;28;20108;-75
2022/12/12 03:57:18;;;;;;;1999.90;999.90;;;;;;;-0.63;100.00;97079.03;5030730;28;20029;-76
2022/12/12 03:59:52;;;;;;;1999.90;999.90;;;;;;;-0.75;100.00;97082.91;5030795;28;20029;-77
2022/12/12 04:02:29;;;;;;;1999.90;999.90;;;;;;;-0.71;100.00;97086.72;5030640;28;20040;-77
2022/12/12 04:05:17;;;;;;;1999.90;999.90;;;;;;;-0.80;100.00;97074.75;5030281;28;20046;-76
2022/12/12 04:07:48;;;;;;;1999.90;999.90;;;;;;;-0.88;100.00;97077.88;5030440;28;20125;-75
2022/12/12 04:13:19;;;;;;;1999.90;999.90;;;;;;;-0.95;100.00;97061.91;5030673;28;20096;-76
2022/12/12 04:15:52;;;;;;;1999.90;999.90;;;;;;;-0.81;100.00;97078.50;5030461;28;20079;-75
2022/12/12 04:18:17;;;;;;;1999.90;999.90;;;;;;;-0.88;100.00;97083.22;5030698;28;20032;-76
2022/12/12 04:24:12;;;;;;;1999.90;999.90;;;;;;;-0.92;100.00;97082.09;5030388;28;20104;-77
2022/12/12 04:26:51;;;;;;;1999.90;999.90;;;;;;;-1.09;100.00;97077.53;5030245;28;20035;-75
2022/12/12 04:29:31;;;;;;;1999.90;999.90;;;;;;;-1.07;100.00;97083.44;5030393;28;20494;-76
2022/12/12 04:32:27;;;;;;;1999.90;999.90;;;;;;;-1.19;100.00;97080.03;5031002;28;20025;-76
2022/12/12 04:35:11;;;;;;;1999.90;999.90;;;;;;;-1.17;100.00;97077.13;5030994;28;20042;-76
2022/12/12 04:37:50;;;;;;;1999.90;999.90;;;;;;;-1.28;100.00;97083.34;5031902;28;20393;-76
2022/12/12 04:40:32;;;;;;;1999.90;999.90;;;;;;;-1.31;100.00;97084.66;5032302;28;20439;-76
2022/12/12 04:43:13;;;;;;;1999.90;999.90;;;;;;;-1.30;100.00;97090.81;5031049;28;20556;-75
2022/12/12 04:45:45;;;;;;;1999.90;999.90;;;;;;;-1.29;100.00;97085.25;5029920;28;20071;-76
2022/12/12 04:48:16;;;;;;;1999.90;999.90;;;;;;;-1.36;100.00;97081.06;5035653;28;20792;-75
2022/12/12 04:50:47;;;;;;;1999.90;999.90;;;;;;;-1.38;100.00;97089.34;5050187;28;20493;-76
2022/12/12 04:53:15;;;;;;;1999.90;999.90;;;;;;;-1.31;100.00;97095.38;5048974;28;20028;-76
2022/12/12 04:55:45;;;;;;;1999.90;999.90;;;;;;;-1.42;100.00;97090.06;5048604;28;20021;-76
2022/12/12 04:58:11;;;;;;;1999.90;999.90;;;;;;;-1.46;100.00;97091.59;5049910;28;20032;-75
2022/12/12 05:00:48;;;;;;;1999.90;999.90;;;;;;;-1.43;100.00;97093.81;5049556;28;20048;-76
2022/12/12 05:03:24;;;;;;;1999.90;999.90;;;;;;;-1.52;100.00;97084.53;5049942;28;20639;-76
2022/12/12 05:05:59;;;;;;;1999.90;999.90;;;;;;;-1.49;100.00;97087.53;5051418;28;20045;-76
2022/12/12 05:08:32;;;;;;;1999.90;999.90;;;;;;;-1.66;100.00;97094.75;5053513;28;20474;-76
2022/12/12 05:11:03;;;;;;;1999.90;999.90;;;;;;;-1.64;100.00;97095.31;5052183;28;20036;-77
2022/12/12 05:13:37;;;;;;;1999.90;999.90;;;;;;;-1.64;100.00;97095.31;5053501;28;20029;-77
2022/12/12 05:16:34;;;;;;;1999.90;999.90;;;;;;;-1.68;100.00;97096.81;5048579;28;20029;-75
2022/12/12 05:18:59;;;;;;;1999.90;999.90;;;;;;;-1.68;100.00;97094.16;5047601;28;20045;-77
2022/12/12 05:21:25;;;;;;;1999.90;999.90;;;;;;;-1.74;100.00;97092.44;5049848;28;20111;-75
2022/12/12 05:23:50;;;;;;;1999.90;999.90;;;;;;;-1.71;100.00;97100.00;5032995;28;20029;-76
2022/12/12 05:26:28;;;;;;;1999.90;999.90;;;;;;;-1.79;100.00;97106.56;5033006;28;20049;-77
2022/12/12 05:28:53;;;;;;;1999.90;999.90;;;;;;;-1.80;100.00;97107.59;5033329;28;20029;-76
2022/12/12 05:31:19;;;;;;;1999.90;999.90;;;;;;;-1.72;100.00;97096.50;5032770;28;20436;-74
2022/12/12 05:33:44;;;;;;;1999.90;999.90;;;;;;;-1.65;100.00;97107.06;5034151;28;20063;-74
2022/12/12 05:36:10;;;;;;;1999.90;999.90;;;;;;;-1.72;100.00;97109.88;5052754;28;20545;-75
2022/12/12 05:38:36;;;;;;;1999.90;999.90;;;;;;;-1.65;100.00;97113.25;5052679;28;20055;-75
2022/12/12 05:41:01;;;;;;;1999.90;999.90;;;;;;;-1.63;100.00;97113.03;5052396;28;20478;-79
2022/12/12 05:43:26;;;;;;;1999.90;999.90;;;;;;;-1.50;100.00;97112.72;5051419;28;20096;-76
2022/12/12 05:45:52;;;;;;;1999.90;999.90;;;;;;;-1.43;100.00;97118.75;5052429;28;20389;-77
2022/12/12 05:48:18;;;;;;;1999.90;999.90;;;;;;;-1.47;100.00;97120.28;5052376;28;20036;-76
2022/12/12 05:50:44;;;;;;;1999.90;999.90;;;;;;;-1.43;100.00;97113.41;5051788;28;20017;-76
2022/12/12 05:53:09;;;;;;;1999.90;999.90;;;;;;;-1.51;100.00;97121.84;5053106;28;20029;-76
2022/12/12 05:55:34;;;;;;;1999.90;999.90;;;;;;;-1.57;100.00;97116.63;5057459;28;20497;-77
2022/12/12 05:58:00;;;;;;;1999.90;999.90;;;;;;;-1.53;100.00;97123.09;5058716;28;20028;-76
2022/12/12 06:00:25;;;;;;;1999.90;999.90;;;;;;;-1.53;100.00;97131.13;5052367;28;20032;-75
2022/12/12 06:02:51;;;;;;;1999.90;999.90;;;;;;;-1.58;100.00;97115.78;5052166;28;20059;-74
2022/12/12 06:05:16;;;;;;;1999.90;999.90;;;;;;;-1.68;100.00;97120.94;5051757;28;20068;-76
2022/12/12 06:07:42;;;;;;;1999.90;999.90;;;;;;;-1.77;100.00;97125.06;5050489;28;20033;-74
2022/12/12 06:10:07;;;;;;;1999.90;999.90;;;;;;;-1.76;100.00;97137.41;5052128;28;20067;-77
2022/12/12 06:12:33;;;;;;;1999.90;999.90;;;;;;;-1.79;100.00;97129.84;5052049;28;20057;-76
2022/12/12 06:14:58;;;;;;;1999.90;999.90;;;;;;;-1.77;100.00;97133.09;5051905;28;20428;-75
2022/12/12 06:17:24;;;;;;;1999.90;999.90;;;;;;;-1.85;100.00;97136.16;5051718;28;20425;-76
2022/12/12 06:19:49;;;;;;;1999.90;999.90;;;;;;;-1.86;100.00;97138.03;5052203;28;20029;-75
2022/12/12 06:22:15;;;;;;;1999.90;999.90;;;;;;;-1.80;100.00;97134.41;5050568;28;20496;-74
2022/12/12 06:24:40;;;;;;;1999.90;999.90;;;;;;;-1.84;100.00;97130.56;5049962;28;20078;-76
2022/12/12 06:27:05;;;;;;;1999.90;999.90;;;;;;;-1.87;100.00;97139.06;5051211;28;20534;-76
2022/12/12 06:29:31;;;;;;;1999.90;999.90;;;;;;;-1.93;100.00;97133.84;5051152;28;20021;-75
2022/12/12 06:31:56;;;;;;;1999.90;999.90;;;;;;;-1.89;100.00;97140.34;5051109;28;20087;-76
2022/12/12 06:34:22;;;;;;;1999.90;999.90;;;;;;;-1.95;100.00;97141.31;5053420;28;20545;-76
2022/12/12 06:36:47;;;;;;;1999.90;999.90;;;;;;;-1.83;100.00;97150.13;5051404;28;20024;-76
2022/12/12 06:39:13;;;;;;;1999.90;999.90;;;;;;;-1.80;100.00;97144.28;5051274;28;20044;-75
2022/12/12 06:41:39;;;;;;;1999.90;999.90;;;;;;;-1.83;100.00;97147.44;5050791;28;20025;-75
2022/12/12 06:44:05;;;;;;;1999.90;999.90;;;;;;;-1.68;100.00;97161.16;5050867;28;20029;-76
2022/12/12 06:46:30;;;;;;;1999.90;999.90;;;;;;;-1.70;100.00;97155.22;5050775;28;20033;-76
2022/12/12 06:48:57;;;;;;;1999.90;999.90;;;;;;;-1.57;100.00;97160.31;5051123;28;20079;-76
2022/12/12 06:51:32;;;;;;;1999.90;999.90;;;;;;;-1.00;100.00;97160.31;5051659;28;20032;-74
2022/12/12 06:53:57;;;;;;;1999.90;999.90;;;;;;;-0.44;100.00;97170.91;5051387;28;20033;-76
2022/12/12 06:56:25;;;;;;;1999.90;999.90;;;;;;;-0.04;100.00;97168.84;5049949;28;20028;-75
2022/12/12 06:58:51;;;;;;;1999.90;999.90;;;;;;;0.14;100.00;97178.47;5050983;28;20040;-76
2022/12/12 07:01:18;;;;;;;1999.90;999.90;;;;;;;0.60;100.00;97182.56;5051036;28;20025;-76
2022/12/12 07:03:44;;;;;;;1999.90;999.90;;;;;;;1.40;100.00;97179.91;5050947;28;20470;-76
2022/12/12 07:06:10;;;;;;;1999.90;999.90;;;;;;;1.97;100.00;97188.16;5050937;28;20044;-76
2022/12/12 07:08:37;;;;;;;1999.90;999.90;;;;;;;1.64;100.00;97191.16;5049649;28;20039;-76
2022/12/12 07:11:10;;;;;;;1999.90;999.90;;;;;;;1.84;100.00;97194.00;5050741;28;20021;-74
2022/12/12 07:13:35;;;;;;;1999.90;999.90;;;;;;;2.28;100.00;97201.84;5050957;28;20032;-76
2022/12/12 07:16:01;;;;;;;1999.90;999.90;;;;;;;3.24;100.00;97203.84;5050885;28;20029;-76
2022/12/12 07:18:26;;;;;;;1999.90;999.90;;;;;;;3.77;100.00;97215.25;5050879;28;20370;-75
2022/12/12 07:20:51;;;;;;;1999.90;999.90;;;;;;;4.50;100.00;97200.28;5051313;28;20040;-76
2022/12/12 07:23:17;;;;;;;1999.90;999.90;;;;;;;4.23;100.00;97208.72;5050848;28;20116;-76
2022/12/12 07:25:43;;;;;;;1999.90;999.90;;;;;;;4.94;100.00;97221.28;5050599;28;20394;-76
2022/12/12 07:28:10;;;;;;;1999.90;999.90;;;;;;;5.37;100.00;97224.03;5050066;28;20497;-76
2022/12/12 07:30:43;;;;;;;1999.90;999.90;;;;;;;5.20;100.00;97220.88;5050727;28;20064;-77
2022/12/12 07:33:10;;;;;;;1999.90;999.90;;;;;;;4.72;100.00;97224.34;5050613;28;20027;-75
2022/12/12 07:35:35;;;;;;;1999.90;999.90;;;;;;;3.97;100.00;97233.38;5050874;28;20033;-77
2022/12/12 07:38:02;;;;;;;1999.90;999.90;;;;;;;3.30;100.00;97220.06;5050233;28;20189;-76
2022/12/12 07:40:27;;;;;;;1999.90;999.90;;;;;;;3.60;100.00;97231.72;5050828;28;20020;-76
2022/12/12 07:42:52;;;;;;;1999.90;999.90;;;;;;;4.54;100.00;97222.22;5050940;28;20116;-77
2022/12/12 07:45:18;;;;;;;1999.90;999.90;;;;;;;5.35;100.00;97234.38;5050481;28;20047;-76
2022/12/12 07:47:44;;;;;;;1999.90;999.90;;;;;;;6.26;100.00;97227.47;5050727;28;20075;-78
2022/12/12 07:50:09;;;;;;;1999.90;999.90;;;;;;;6.68;100.00;97224.06;5049768;28;20029;-77
2022/12/12 07:52:35;;;;;;;1999.90;999.90;;;;;;;6.80;95.91;97232.63;5050479;28;20022;-79
2022/12/12 07:55:01;;;;;;;1999.90;999.90;;;;;;;7.96;85.47;97250.94;5050515;28;20029;-77
2022/12/12 07:57:27;;;;;;;1999.90;999.90;;;;;;;7.21;91.27;97239.19;5050664;28;20021;-77
2022/12/12 07:59:53;;;;;;;1999.90;999.90;;;;;;;7.83;86.65;97251.66;5050667;28;20033;-77
2022/12/12 08:02:18;;;;;;;1999.90;999.90;;;;;;;8.21;85.69;97265.25;5051774;28;20017;-77
2022/12/12 08:04:43;;;;;;;1999.90;999.90;;;;;;;7.67;84.19;97266.63;5055005;28;20043;-78
2022/12/12 08:07:08;;;;;;;1999.90;999.90;;;;;;;7.66;83.99;97265.00;5056461;28;20060;-76
2022/12/12 08:09:35;;;;;;;1999.90;999.90;;;;;;;7.46;85.02;97262.53;5050202;28;20029;-76
2022/12/12 08:12:00;;;;;;;1999.90;999.90;;;;;;;7.76;82.33;97266.78;5050185;28;20031;-76
2022/12/12 08:14:26;;;;;;;1999.90;999.90;;;;;;;8.58;79.16;97270.66;5050496;28;20033;-77
2022/12/12 08:16:51;;;;;;;1999.90;999.90;;;;;;;9.12;75.90;97275.38;5050373;28;20387;-76
2022/12/12 08:19:17;;;;;;;1999.90;999.90;;;;;;;9.15;72.75;97272.84;5050242;28;20055;-77
2022/12/12 08:21:43;;;;;;;1999.90;999.90;;;;;;;9.43;71.44;97279.09;5050645;28;20040;-76
2022/12/12 08:24:11;;;;;;;1999.90;999.90;;;;;;;10.84;64.37;97274.22;5049422;28;20025;-76
2022/12/12 08:26:36;;;;;;;1999.90;999.90;;;;;;;9.49;66.01;97279.84;5050490;28;20029;-77
2022/12/12 08:29:02;;;;;;;1999.90;999.90;;;;;;;9.72;65.51;97280.69;5050238;28;20123;-76
2022/12/12 08:31:28;;;;;;;1999.90;999.90;;;;;;;10.31;62.03;97287.84;5050327;28;20036;-77
2022/12/12 08:33:55;;;;;;;1999.90;999.90;;;;;;;8.49;64.69;97294.25;5048939;28;20028;-75
2022/12/12 08:36:28;;;;;;;1999.90;999.90;;;;;;;9.04;64.76;97306.09;5049881;28;20055;-75
2022/12/12 08:38:54;;;;;;;1999.90;999.90;;;;;;;8.66;65.91;97296.41;5049574;28;20429;-76
2022/12/12 08:41:19;;;;;;;1999.90;999.90;;;;;;;9.24;64.18;97297.50;5052758;28;20055;-76
2022/12/12 08:43:45;;;;;;;1999.90;999.90;;;;;;;8.79;63.15;97312.00;5053913;28;20040;-76
2022/12/12 08:46:12;;;;;;;1999.90;999.90;;;;;;;10.73;58.68;97314.69;5053847;28;20021;-76
2022/12/12 08:48:37;;;;;;;1999.90;999.90;;;;;;;10.72;57.14;97307.59;5053709;28;20478;-74
2022/12/12 08:51:03;;;;;;;1999.90;999.90;;;;;;;10.35;56.87;97303.31;5053860;28;20033;-75
2022/12/12 08:53:28;;;;;;;1999.90;999.90;;;;;;;8.80;58.18;97319.88;5053895;28;20470;-75
2022/12/12 08:55:54;;;;;;;1999.90;999.90;;;;;;;6.01;68.48;97309.94;5053505;28;20021;-75
2022/12/12 08:58:20;;;;;;;1999.90;999.90;;;;;;;7.61;66.43;97307.81;5053631;28;20036;-76
2022/12/12 09:00:45;;;;;;;1999.90;999.90;;;;;;;6.72;68.45;97314.78;5053654;28;20037;-75
2022/12/12 09:03:10;;;;;;;1999.90;999.90;;;;;;;6.55;69.89;97322.56;5053617;28;20048;-76
2022/12/12 09:05:36;;;;;;;1999.90;999.90;;;;;;;7.47;65.55;97319.41;5053287;28;20051;-77
2022/12/12 09:08:01;;;;;;;1999.90;999.90;;;;;;;5.58;73.73;97318.81;5053600;28;20032;-76
2022/12/12 09:10:28;;;;;;;1999.90;999.90;;;;;;;7.20;72.84;97323.81;5053508;28;20954;-77
2022/12/12 09:12:54;;;;;;;1999.90;999.90;;;;;;;8.58;67.33;97319.75;5053316;28;20021;-76
2022/12/12 09:15:19;;;;;;;1999.90;999.90;;;;;;;8.38;68.08;97334.50;5053250;28;20043;-76
2022/12/12 09:17:45;;;;;;;1999.90;999.90;;;;;;;7.82;67.56;97329.03;5053668;28;20474;-76
2022/12/12 09:20:10;;;;;;;1999.90;999.90;;;;;;;7.51;68.63;97335.97;5053045;28;20037;-76
2022/12/12 09:22:36;;;;;;;1999.90;999.90;;;;;;;7.20;68.84;97343.66;5053548;28;20135;-75
2022/12/12 09:25:01;;;;;;;1999.90;999.90;;;;;;;7.51;71.32;97334.06;5053560;28;20490;-76
2022/12/12 09:27:27;;;;;;;1999.90;999.90;;;;;;;7.05;70.88;97343.81;5053397;28;20039;-76
2022/12/12 09:29:52;;;;;;;1999.90;999.90;;;;;;;7.35;70.45;97342.69;5053167;28;20048;-74
2022/12/12 09:32:18;;;;;;;1999.90;999.90;;;;;;;7.21;72.11;97333.56;5053100;28;20041;-75
2022/12/12 09:34:43;;;;;;;1999.90;999.90;;;;;;;6.93;73.85;97341.47;5052957;28;20544;-76
2022/12/12 09:37:09;;;;;;;1999.90;999.90;;;;;;;5.95;79.01;97340.94;5052964;28;20056;-75
2022/12/12 09:39:34;;;;;;;1999.90;999.90;;;;;;;4.84;87.60;97344.03;5051319;28;20048;-75
2022/12/12 09:42:20;;;;;;;1999.90;999.90;;;;;;;4.25;92.01;97350.03;5052717;28;20103;-76
2022/12/12 09:44:46;;;;;;;1999.90;999.90;;;;;;;3.76;94.76;97354.25;5052784;28;20052;-75
2022/12/12 09:47:18;;;;;;;1999.90;999.90;;;;;;;3.80;100.00;97336.41;5052605;28;20501;-76
2022/12/12 09:49:48;;;;;;;1999.90;999.90;;;;;;;3.27;100.00;97339.50;5052653;28;20470;-75
2022/12/12 09:52:16;;;;;;;1999.90;999.90;;;;;;;3.04;100.00;97328.03;5052323;28;20037;-77
2022/12/12 09:54:42;;;;;;;1999.90;999.90;;;;;;;2.59;100.00;97335.88;5052522;28;20033;-74
2022/12/12 09:57:27;;;;;;;1999.90;999.90;;;;;;;2.99;100.00;97330.72;5052748;28;20108;-76
2022/12/12 10:00:09;;;;;;;1999.90;999.90;;;;;;;3.60;100.00;97331.75;5053243;28;20033;-76
2022/12/12 10:02:56;;;;;;;1999.90;999.90;;;;;;;4.15;96.38;97338.38;5053552;28;20032;-75
2022/12/12 10:05:38;;;;;;;1999.90;999.90;;;;;;;3.50;99.59;97320.94;5054034;28;20060;-77
2022/12/12 10:08:15;;;;;;;1999.90;999.90;;;;;;;2.99;100.00;97319.91;5053780;28;20032;-75
2022/12/12 10:10:43;;;;;;;1999.90;999.90;;;;;;;2.69;100.00;97325.16;5053339;28;20493;-74
2022/12/12 10:13:33;;;;;;;1999.90;999.90;;;;;;;2.86;100.00;97323.09;5052661;28;20485;-75
2022/12/12 10:16:06;;;;;;;1999.90;999.90;;;;;;;3.12;100.00;97322.16;5054465;28;20064;-81
2022/12/12 10:18:40;;;;;;;1999.90;999.90;;;;;;;3.72;100.00;97324.25;5058972;28;20576;-79
2022/12/12 10:21:21;;;;;;;1999.90;999.90;;;;;;;4.11;99.50;97321.84;5056761;28;20493;-78
2022/12/12 10:23:56;;;;;;;1999.90;999.90;;;;;;;4.82;92.60;97332.66;5052174;28;20033;-76
2022/12/12 10:26:27;;;;;;;1999.90;999.90;;;;;;;5.16;85.50;97332.84;5051997;28;20047;-76
2022/12/12 10:29:07;;;;;;;1999.90;999.90;;;;;;;4.66;89.71;97331.88;5053288;28;20025;-77
2022/12/12 10:31:38;;;;;;;1999.90;999.90;;;;;;;4.48;92.87;97337.03;5052239;28;20032;-76
2022/12/12 10:34:34;;;;;;;1999.90;999.90;;;;;;;3.42;98.77;97323.31;5052538;28;20033;-75
2022/12/12 10:37:24;;;;;;;1999.90;999.90;;;;;;;3.08;100.00;97323.75;5052173;28;20071;-75
2022/12/12 10:40:08;;;;;;;1999.90;999.90;;;;;;;2.95;100.00;97320.69;5051603;28;20041;-75
2022/12/12 10:42:49;;;;;;;1999.90;999.90;;;;;;;2.65;100.00;97315.94;5051785;28;20473;-76
2022/12/12 10:45:28;;;;;;;1999.90;999.90;;;;;;;2.44;100.00;97290.72;5051730;28;20035;-75
2022/12/12 10:47:53;;;;;;;1999.90;999.90;;;;;;;2.65;100.00;97318.66;5051606;28;20048;-75
2022/12/12 10:50:19;;;;;;;1999.90;999.90;;;;;;;2.17;100.00;97323.16;5051594;28;20431;-75
2022/12/12 10:52:44;;;;;;;1999.90;999.90;;;;;;;2.33;100.00;97315.19;5051478;28;20462;-76
2022/12/12 10:55:18;;;;;;;1999.90;999.90;;;;;;;2.36;100.00;97314.66;5051418;28;20525;-76
2022/12/12 10:57:43;;;;;;;1999.90;999.90;;;;;;;2.24;100.00;97322.13;5051322;28;20024;-75
2022/12/12 11:00:28;;;;;;;1999.90;999.90;;;;;;;2.21;100.00;97328.03;5051450;28;20032;-76
2022/12/12 11:02:55;;;;;;;1999.90;999.90;;;;;;;2.28;100.00;97320.53;5050505;28;20028;-76
2022/12/12 11:05:35;;;;;;;1999.90;999.90;;;;;;;2.28;100.00;97312.44;5051274;28;20075;-76
2022/12/12 11:08:04;;;;;;;1999.90;999.90;;;;;;;2.65;100.00;97318.66;5051223;28;20108;-76
2022/12/12 11:10:30;;;;;;;1999.90;999.90;;;;;;;2.60;100.00;97318.63;5051253;28;20836;-75
2022/12/12 11:13:14;;;;;;;1999.90;999.90;;;;;;;2.46;100.00;97320.13;5051150;28;20017;-76
2022/12/12 11:15:49;;;;;;;1999.90;999.90;;;;;;;2.67;100.00;97324.59;5049914;28;20024;-75